Time;durP1;ratioP1;P1;durP2;ratioP2;P2;SDS_P1;SDS_P2;PMS_P1;PMS_P2;Temp;Humidity;BMP_temperature;BMP_pressure;BME280_temperature;BME280_humidity;BME280_pressure;Samples;Min_cycle;Max_cycle;Signal;HPM_P1;HPM_P2
2023/07/16 00:00:27;;;;;;;;;;;;;;;29.53;44.14;100986.05;102653;1292;62147;-81
2023/07/16 00:02:53;;;;;;;;;;;;;;;29.54;44.18;100986.04;102746;1298;62302;-81
2023/07/16 00:05:18;;;;;;;;;;;;;;;29.53;44.24;100982.99;102713;1291;62258;-81
2023/07/16 00:07:44;;;;;;;;;;;;;;;29.53;44.19;100981.95;102634;1291;62777;-81
2023/07/16 00:10:09;;;;;;;;;;;;;;;29.53;44.29;100979.97;102703;1291;62573;-81
2023/07/16 00:12:35;;;;;;;;;;;;;;;29.53;44.28;100981.36;102691;1297;62268;-81
2023/07/16 00:15:00;;;;;;;;;;;;;;;29.53;44.15;100985.17;102724;1292;62204;-81
2023/07/16 00:17:25;;;;;;;;;;;;;;;29.53;44.41;100982.14;102695;1297;62825;-81
2023/07/16 00:19:51;;;;;;;;;;;;;;;29.53;44.24;100981.63;102714;1295;62286;-81
2023/07/16 00:22:16;;;;;;;;;;;;;;;29.52;44.09;100983.26;102765;1291;63464;-81
2023/07/16 00:24:42;;;;;;;;;;;;;;;29.53;44.26;100982.89;102713;1295;62110;-81
2023/07/16 00:27:07;;;;;;;;;;;;;;;29.53;44.30;100981.80;102667;1297;62320;-81
2023/07/16 00:29:33;;;;;;;;;;;;;;;29.52;44.13;100976.94;102719;1296;63457;-81
2023/07/16 00:31:58;;;;;;;;;;;;;;;29.52;44.20;100976.39;102755;1291;63246;-81
2023/07/16 00:34:23;;;;;;;;;;;;;;;29.52;44.26;100973.16;102765;1291;62901;-81
2023/07/16 00:36:49;;;;;;;;;;;;;;;29.52;44.21;100975.13;102717;1297;62265;-81
2023/07/16 00:39:14;;;;;;;;;;;;;;;29.52;44.18;100971.90;102618;1308;63335;-81
2023/07/16 00:41:40;;;;;;;;;;;;;;;29.52;44.21;100969.73;102723;1297;63332;-81
2023/07/16 00:44:05;;;;;;;;;;;;;;;29.52;44.26;100968.84;102734;1291;62229;-81
2023/07/16 00:46:30;;;;;;;;;;;;;;;29.52;44.29;100969.39;102728;1292;62258;-81
2023/07/16 00:48:56;;;;;;;;;;;;;;;29.51;44.49;100969.59;102705;1296;62209;-81
2023/07/16 00:51:22;;;;;;;;;;;;;;;29.52;44.21;100969.39;102774;1298;62324;-82
2023/07/16 00:53:47;;;;;;;;;;;;;;;29.51;44.14;100968.34;102772;1295;62203;-81
2023/07/16 00:56:13;;;;;;;;;;;;;;;29.52;44.16;100967.05;102739;1297;62239;-81
2023/07/16 00:58:38;;;;;;;;;;;;;;;29.51;44.28;100965.08;102877;1292;62152;-81
2023/07/16 01:01:04;;;;;;;;;;;;;;;29.51;44.33;100962.38;102695;1297;62276;-81
2023/07/16 01:03:29;;;;;;;;;;;;;;;29.51;44.41;100963.84;102706;1297;62249;-81
2023/07/16 01:06:10;;;;;;;;;;;;;;;29.51;44.26;100964.59;102726;1296;63382;-81
2023/07/16 01:08:38;;;;;;;;;;;;;;;29.51;44.30;100965.10;102757;1293;62157;-81
2023/07/16 01:11:04;;;;;;;;;;;;;;;29.51;44.23;100962.20;102681;1296;63269;-81
2023/07/16 01:13:29;;;;;;;;;;;;;;;29.51;44.34;100962.78;102701;1295;62210;-81
2023/07/16 01:15:54;;;;;;;;;;;;;;;29.51;44.26;100964.95;102674;1297;62267;-81
2023/07/16 01:18:20;;;;;;;;;;;;;;;29.51;44.05;100967.13;102744;1295;62455;-81
2023/07/16 01:20:46;;;;;;;;;;;;;;;29.50;44.27;100964.08;102782;1291;62250;-81
2023/07/16 01:23:11;;;;;;;;;;;;;;;29.50;44.23;100967.54;102746;1296;62335;-81
2023/07/16 01:25:45;;;;;;;;;;;;;;;29.50;44.29;100969.17;102711;1291;62304;-81
2023/07/16 01:28:29;;;;;;;;;;;;;;;29.50;44.22;100965.58;102729;1292;66701;-81
2023/07/16 01:30:55;;;;;;;;;;;;;;;29.50;44.19;100962.13;102708;1291;62306;-81
2023/07/16 01:33:20;;;;;;;;;;;;;;;29.50;44.18;100962.52;102744;1295;62134;-81
2023/07/16 01:35:46;;;;;;;;;;;;;;;29.50;44.32;100959.63;102724;1291;62318;-81
2023/07/16 01:38:11;;;;;;;;;;;;;;;29.50;44.33;100959.24;102751;1291;62319;-81
2023/07/16 01:40:37;;;;;;;;;;;;;;;29.50;44.43;100961.59;102724;1297;62204;-81
2023/07/16 01:43:02;;;;;;;;;;;;;;;29.50;44.37;100962.71;102707;1291;62278;-81
2023/07/16 01:45:27;;;;;;;;;;;;;;;29.49;44.25;100960.60;102743;1291;62595;-81
2023/07/16 01:48:13;;;;;;;;;;;;;;;29.49;44.22;100960.23;102709;1297;63415;-81
2023/07/16 01:50:40;;;;;;;;;;;;;;;29.50;44.21;100960.20;102695;1293;66624;-81
2023/07/16 01:53:05;;;;;;;;;;;;;;;29.49;44.31;100959.34;102701;1297;63263;-80
2023/07/16 01:55:30;;;;;;;;;;;;;;;29.49;44.18;100961.55;102688;1291;63369;-81
2023/07/16 01:57:56;;;;;;;;;;;;;;;29.49;44.23;100962.81;102774;1296;62217;-81
2023/07/16 02:00:21;;;;;;;;;;;;;;;29.48;44.20;100958.38;102721;1297;62252;-81
2023/07/16 02:02:47;;;;;;;;;;;;;;;29.48;44.25;100958.31;102715;1291;63558;-81
2023/07/16 02:05:12;;;;;;;;;;;;;;;29.48;44.30;100955.70;102730;1293;62301;-81
2023/07/16 02:07:38;;;;;;;;;;;;;;;29.48;44.19;100958.89;102714;1297;62217;-81
2023/07/16 02:10:03;;;;;;;;;;;;;;;29.48;44.19;100956.19;102789;1291;63260;-81
2023/07/16 02:12:29;;;;;;;;;;;;;;;29.48;44.35;100958.39;102710;1297;64597;-81
2023/07/16 02:14:54;;;;;;;;;;;;;;;29.47;44.26;100957.33;102694;1292;62441;-81
2023/07/16 02:17:19;;;;;;;;;;;;;;;29.48;44.25;100955.16;102816;1296;62232;-81
2023/07/16 02:19:45;;;;;;;;;;;;;;;29.47;44.37;100957.34;102709;1292;62317;-81
2023/07/16 02:22:10;;;;;;;;;;;;;;;29.47;44.39;100956.86;102768;1294;62200;-81
2023/07/16 02:24:36;;;;;;;;;;;;;;;29.47;44.23;100957.20;102728;1294;62230;-81
2023/07/16 02:27:01;;;;;;;;;;;;;;;29.47;44.28;100955.73;102749;1291;63346;-81
2023/07/16 02:29:27;;;;;;;;;;;;;;;29.47;44.36;100958.45;102739;1291;62783;-81
2023/07/16 02:31:52;;;;;;;;;;;;;;;29.47;44.31;100958.48;102766;1291;62212;-81
2023/07/16 02:34:18;;;;;;;;;;;;;;;29.46;44.28;100956.72;102698;1291;62180;-81
2023/07/16 02:36:43;;;;;;;;;;;;;;;29.46;44.35;100952.05;102678;1297;63260;-81
2023/07/16 02:39:08;;;;;;;;;;;;;;;29.46;44.19;100954.03;102724;1291;62284;-81
2023/07/16 02:41:34;;;;;;;;;;;;;;;29.46;44.21;100957.46;102667;1291;62192;-81
2023/07/16 02:44:00;;;;;;;;;;;;;;;29.46;44.26;100956.20;102784;1297;62406;-81
2023/07/16 02:46:26;;;;;;;;;;;;;;;29.46;44.32;100954.60;102766;1292;62202;-81
2023/07/16 02:48:51;;;;;;;;;;;;;;;29.45;44.39;100954.84;102700;1291;62220;-81
2023/07/16 02:51:16;;;;;;;;;;;;;;;29.46;44.25;100959.32;102737;1291;63465;-81
2023/07/16 02:53:42;;;;;;;;;;;;;;;29.46;44.31;100956.05;102679;1292;62210;-81
2023/07/16 02:56:07;;;;;;;;;;;;;;;29.45;44.28;100956.70;102738;1297;62304;-81
2023/07/16 02:58:33;;;;;;;;;;;;;;;29.45;44.20;100962.45;102663;1292;62327;-81
2023/07/16 03:00:58;;;;;;;;;;;;;;;29.45;44.20;100960.67;102694;1292;62604;-81
2023/07/16 03:03:24;;;;;;;;;;;;;;;29.45;44.30;100963.20;102737;1294;63542;-81
2023/07/16 03:05:50;;;;;;;;;;;;;;;29.45;44.37;100962.14;102758;1291;63492;-81
2023/07/16 03:08:15;;;;;;;;;;;;;;;29.45;44.29;100962.14;102718;1295;62186;-81
2023/07/16 03:10:41;;;;;;;;;;;;;;;29.45;44.35;100965.04;102689;1294;62213;-81
2023/07/16 03:13:06;;;;;;;;;;;;;;;29.45;44.28;100967.92;102751;1291;62197;-81
2023/07/16 03:15:32;;;;;;;;;;;;;;;29.45;44.31;100964.12;102696;1296;63404;-81
2023/07/16 03:17:58;;;;;;;;;;;;;;;29.45;44.42;100963.36;102690;1291;62234;-81
2023/07/16 03:20:23;;;;;;;;;;;;;;;29.46;44.44;100969.14;102759;1291;62179;-81
2023/07/16 03:22:48;;;;;;;;;;;;;;;29.45;44.36;100969.35;102721;1291;62087;-81
2023/07/16 03:25:14;;;;;;;;;;;;;;;29.45;44.37;100968.25;102726;1297;62222;-81
2023/07/16 03:27:39;;;;;;;;;;;;;;;29.45;44.40;100967.21;102706;1291;63387;-81
2023/07/16 03:30:05;;;;;;;;;;;;;;;29.45;44.45;100970.23;102704;1291;63555;-81
2023/07/16 03:32:31;;;;;;;;;;;;;;;29.45;44.39;100969.92;102738;1291;63404;-81
2023/07/16 03:34:56;;;;;;;;;;;;;;;29.45;44.49;100972.05;102690;1293;62128;-81
2023/07/16 03:37:22;;;;;;;;;;;;;;;29.45;44.52;100973.02;102720;1291;63312;-81
2023/07/16 03:39:47;;;;;;;;;;;;;;;29.45;44.33;100975.70;102687;1291;62239;-81
2023/07/16 03:42:13;;;;;;;;;;;;;;;29.45;44.39;100977.88;102686;1297;62541;-81
2023/07/16 03:44:38;;;;;;;;;;;;;;;29.46;44.55;100980.52;102736;1291;62316;-81
2023/07/16 03:47:04;;;;;;;;;;;;;;;29.45;44.37;100983.15;102710;1296;62206;-81
2023/07/16 03:49:29;;;;;;;;;;;;;;;29.45;44.50;100982.23;102716;1291;62319;-81
2023/07/16 03:51:54;;;;;;;;;;;;;;;29.45;44.46;100984.02;102688;1297;62217;-81
2023/07/16 03:54:20;;;;;;;;;;;;;;;29.45;44.63;100982.06;102731;1291;63939;-81
2023/07/16 03:56:46;;;;;;;;;;;;;;;29.45;44.37;100981.89;102759;1295;62268;-81
2023/07/16 03:59:11;;;;;;;;;;;;;;;29.45;44.44;100976.96;102746;1295;62192;-81
2023/07/16 04:01:37;;;;;;;;;;;;;;;29.45;44.34;100982.94;102681;1297;62296;-81
2023/07/16 04:04:02;;;;;;;;;;;;;;;29.45;44.32;100983.15;102711;1297;62284;-81
2023/07/16 04:06:28;;;;;;;;;;;;;;;29.45;44.45;100980.77;102748;1291;62337;-81
2023/07/16 04:08:53;;;;;;;;;;;;;;;29.45;44.37;100979.00;102726;1296;63441;-81
2023/07/16 04:11:19;;;;;;;;;;;;;;;29.45;44.39;100986.21;102716;1291;62198;-81
2023/07/16 04:13:44;;;;;;;;;;;;;;;29.45;44.42;100985.84;102729;1292;62124;-81
2023/07/16 04:16:10;;;;;;;;;;;;;;;29.45;44.39;100987.84;102673;1291;62584;-81
2023/07/16 04:18:35;;;;;;;;;;;;;;;29.46;44.36;100986.85;102694;1291;63146;-81
2023/07/16 04:21:01;;;;;;;;;;;;;;;29.46;44.36;100986.51;102732;1291;62229;-81
2023/07/16 04:23:26;;;;;;;;;;;;;;;29.46;44.40;100993.02;102720;1291;62299;-81
2023/07/16 04:25:53;;;;;;;;;;;;;;;29.46;44.32;100997.71;102702;1291;62606;-81
2023/07/16 04:28:18;;;;;;;;;;;;;;;29.47;44.55;100998.18;102725;1297;62272;-81
2023/07/16 04:30:43;;;;;;;;;;;;;;;29.47;44.37;100999.95;102697;1291;62350;-81
2023/07/16 04:33:09;;;;;;;;;;;;;;;29.48;44.47;100998.43;102729;1295;63258;-81
2023/07/16 04:35:34;;;;;;;;;;;;;;;29.48;44.34;100996.29;102762;1291;62233;-81
2023/07/16 04:38:00;;;;;;;;;;;;;;;29.48;44.35;101000.02;102680;1292;63750;-81
2023/07/16 04:40:25;;;;;;;;;;;;;;;29.48;44.35;101001.89;102702;1297;62803;-81
2023/07/16 04:42:51;;;;;;;;;;;;;;;29.49;44.35;101001.61;102687;1291;62298;-81
2023/07/16 04:45:16;;;;;;;;;;;;;;;29.49;44.42;101003.00;102708;1291;62128;-81
2023/07/16 04:47:42;;;;;;;;;;;;;;;29.50;44.32;101007.41;102748;1291;62231;-81
2023/07/16 04:50:07;;;;;;;;;;;;;;;29.50;44.21;101008.73;102670;1291;63377;-81
2023/07/16 04:52:33;;;;;;;;;;;;;;;29.51;44.25;101012.05;102682;1291;62194;-81
2023/07/16 04:54:58;;;;;;;;;;;;;;;29.52;44.41;101009.73;102740;1291;62225;-81
2023/07/16 04:57:23;;;;;;;;;;;;;;;29.53;44.33;101006.62;102735;1291;66657;-81
2023/07/16 04:59:49;;;;;;;;;;;;;;;29.54;44.30;101002.59;102715;1291;62202;-81
2023/07/16 05:02:16;;;;;;;;;;;;;;;29.55;44.24;101006.63;102702;1291;62265;-81
2023/07/16 05:04:43;;;;;;;;;;;;;;;29.56;44.32;101007.25;102762;1291;62329;-81
2023/07/16 05:07:09;;;;;;;;;;;;;;;29.56;44.27;101008.25;102734;1292;63462;-81
2023/07/16 05:09:34;;;;;;;;;;;;;;;29.57;44.28;101005.45;102700;1294;62390;-81
2023/07/16 05:12:00;;;;;;;;;;;;;;;29.58;44.32;101009.20;102750;1291;63549;-81
2023/07/16 05:14:26;;;;;;;;;;;;;;;29.59;44.30;101008.17;102727;1291;62628;-81
2023/07/16 05:16:51;;;;;;;;;;;;;;;29.59;44.25;101006.69;102760;1297;62192;-81
2023/07/16 05:19:17;;;;;;;;;;;;;;;29.60;44.34;101008.77;102752;1293;62158;-81
2023/07/16 05:21:42;;;;;;;;;;;;;;;29.61;44.24;101008.34;102773;1291;62235;-81
2023/07/16 05:24:08;;;;;;;;;;;;;;;29.63;44.38;101011.26;102770;1297;62284;-81
2023/07/16 05:26:33;;;;;;;;;;;;;;;29.63;44.17;101007.98;102688;1291;62247;-81
2023/07/16 05:28:58;;;;;;;;;;;;;;;29.64;44.30;101007.70;102690;1293;63984;-81
2023/07/16 05:31:24;;;;;;;;;;;;;;;29.64;44.34;101009.50;102680;1291;63442;-81
2023/07/16 05:33:49;;;;;;;;;;;;;;;29.65;44.26;101008.65;102731;1291;62091;-81
2023/07/16 05:36:14;;;;;;;;;;;;;;;29.65;44.27;101008.21;102694;1291;62313;-81
2023/07/16 05:38:40;;;;;;;;;;;;;;;29.67;44.13;101009.17;103065;1291;64565;-81
2023/07/16 05:41:05;;;;;;;;;;;;;;;29.67;44.14;101013.84;102861;1294;68067;-81
2023/07/16 05:43:31;;;;;;;;;;;;;;;29.69;44.15;101012.42;103172;1291;62203;-81
2023/07/16 05:45:57;;;;;;;;;;;;;;;29.70;44.23;101016.84;102909;1291;62217;-81
2023/07/16 05:48:23;;;;;;;;;;;;;;;29.70;44.21;101016.23;102993;1291;62523;-81
2023/07/16 05:50:48;;;;;;;;;;;;;;;29.71;44.16;101017.80;102990;1291;62247;-81
2023/07/16 05:53:14;;;;;;;;;;;;;;;29.72;44.28;101024.16;102734;1297;62286;-81
2023/07/16 05:55:39;;;;;;;;;;;;;;;29.73;44.29;101022.61;103174;1291;62202;-81
2023/07/16 05:58:05;;;;;;;;;;;;;;;29.74;44.10;101022.89;103037;1291;62208;-81
2023/07/16 06:00:30;;;;;;;;;;;;;;;29.75;44.20;101024.42;102807;1295;63811;-81
2023/07/16 06:02:56;;;;;;;;;;;;;;;29.76;44.18;101027.08;102795;1296;62830;-81
2023/07/16 06:05:21;;;;;;;;;;;;;;;29.77;44.19;101028.55;102780;1297;62258;-81
2023/07/16 06:07:47;;;;;;;;;;;;;;;29.79;44.22;101028.45;102924;1295;62128;-81
2023/07/16 06:10:12;;;;;;;;;;;;;;;29.79;44.14;101030.02;102831;1297;62188;-81
2023/07/16 06:12:38;;;;;;;;;;;;;;;29.79;44.11;101027.63;102698;1291;62259;-81
2023/07/16 06:15:03;;;;;;;;;;;;;;;29.80;44.14;101030.23;102657;1291;62229;-81
2023/07/16 06:17:29;;;;;;;;;;;;;;;29.81;43.94;101033.06;102739;1297;62249;-81
2023/07/16 06:19:54;;;;;;;;;;;;;;;29.82;44.02;101034.60;102747;1294;62217;-81
2023/07/16 06:22:20;;;;;;;;;;;;;;;29.82;43.87;101029.31;102713;1291;62239;-81
2023/07/16 06:24:45;;;;;;;;;;;;;;;29.83;43.99;101031.40;102745;1297;62683;-81
2023/07/16 06:27:11;;;;;;;;;;;;;;;29.84;43.83;101029.16;102671;1292;62261;-81
2023/07/16 06:29:36;;;;;;;;;;;;;;;29.84;44.01;101036.53;102706;1292;63484;-81
2023/07/16 06:32:02;;;;;;;;;;;;;;;29.84;44.12;101036.91;102687;1291;63468;-81
2023/07/16 06:34:28;;;;;;;;;;;;;;;29.85;43.84;101035.39;102705;1297;62861;-81
2023/07/16 06:36:54;;;;;;;;;;;;;;;29.85;43.99;101036.65;102711;1297;62221;-81
2023/07/16 06:39:20;;;;;;;;;;;;;;;29.85;44.03;101036.62;102684;1297;62583;-81
2023/07/16 06:41:46;;;;;;;;;;;;;;;29.85;44.02;101032.64;102742;1296;62685;-81
2023/07/16 06:44:11;;;;;;;;;;;;;;;29.86;43.88;101034.22;102735;1291;62263;-81
2023/07/16 06:46:36;;;;;;;;;;;;;;;29.85;43.95;101028.44;102693;1291;62195;-81
2023/07/16 06:49:02;;;;;;;;;;;;;;;29.87;43.89;101031.41;102684;1291;62839;-81
2023/07/16 06:51:29;;;;;;;;;;;;;;;29.86;43.93;101032.34;102778;1291;62300;-81
2023/07/16 06:53:55;;;;;;;;;;;;;;;29.87;43.89;101030.30;102791;1294;62230;-81
2023/07/16 06:56:20;;;;;;;;;;;;;;;29.87;43.97;101030.27;102752;1291;62262;-81
2023/07/16 06:58:46;;;;;;;;;;;;;;;29.87;43.90;101028.47;102758;1292;62318;-81
2023/07/16 07:01:11;;;;;;;;;;;;;;;29.87;43.82;101026.84;102787;1291;62433;-81
2023/07/16 07:03:36;;;;;;;;;;;;;;;29.87;43.80;101028.05;102745;1292;62292;-81
2023/07/16 07:06:03;;;;;;;;;;;;;;;29.87;43.90;101028.60;102649;1291;62725;-81
2023/07/16 07:08:29;;;;;;;;;;;;;;;29.88;43.93;101025.84;102326;1291;622909;-81
2023/07/16 07:10:54;;;;;;;;;;;;;;;29.88;43.87;101026.02;102678;1296;62217;-81
2023/07/16 07:13:20;;;;;;;;;;;;;;;29.88;43.85;101027.10;102729;1291;62148;-81
2023/07/16 07:15:45;;;;;;;;;;;;;;;29.88;43.96;101027.61;102788;1291;62573;-81
2023/07/16 07:18:11;;;;;;;;;;;;;;;29.88;44.06;101030.50;102735;1291;63384;-81
2023/07/16 07:20:36;;;;;;;;;;;;;;;29.88;43.98;101028.50;102731;1297;62316;-81
2023/07/16 07:23:03;;;;;;;;;;;;;;;29.88;43.99;101030.13;102767;1291;62197;-81
2023/07/16 07:25:29;;;;;;;;;;;;;;;29.88;43.98;101028.49;102739;1291;62380;-81
2023/07/16 07:27:54;;;;;;;;;;;;;;;29.88;44.02;101027.77;102720;1291;62338;-81
2023/07/16 07:30:19;;;;;;;;;;;;;;;29.89;43.89;101028.09;102725;1291;62203;-81
2023/07/16 07:32:45;;;;;;;;;;;;;;;29.88;44.04;101029.24;102755;1291;62294;-81
2023/07/16 07:35:10;;;;;;;;;;;;;;;29.89;43.83;101026.46;102724;1291;62302;-81
2023/07/16 07:37:36;;;;;;;;;;;;;;;29.88;43.99;101024.51;102577;1295;62285;-81
2023/07/16 07:40:03;;;;;;;;;;;;;;;29.89;43.81;101026.09;102484;1294;62145;-81
2023/07/16 07:42:28;;;;;;;;;;;;;;;29.88;43.86;101020.67;102613;1294;62199;-81
2023/07/16 07:44:53;;;;;;;;;;;;;;;29.89;43.96;101021.94;102606;1294;62308;-81
2023/07/16 07:47:19;;;;;;;;;;;;;;;29.88;44.05;101021.42;102476;1294;63376;-81
2023/07/16 07:49:44;;;;;;;;;;;;;;;29.89;43.98;101017.72;102604;1294;62186;-81
2023/07/16 07:52:10;;;;;;;;;;;;;;;29.89;43.89;101019.02;102580;1295;62475;-81
2023/07/16 07:54:35;;;;;;;;;;;;;;;29.89;43.96;101013.01;102633;1294;63117;-81
2023/07/16 07:57:03;;;;;;;;;;;;;;;29.89;43.98;101013.34;102564;1300;62404;-81
2023/07/16 07:59:29;;;;;;;;;;;;;;;29.90;43.90;101012.59;102673;1294;65119;-81
2023/07/16 08:01:54;;;;;;;;;;;;;;;29.90;44.01;101010.58;102485;1299;62205;-81
2023/07/16 08:04:20;;;;;;;;;;;;;;;29.89;44.01;101008.77;102569;1295;62396;-81
2023/07/16 08:06:45;;;;;;;;;;;;;;;29.90;43.90;101006.91;102580;1298;63920;-81
2023/07/16 08:09:11;;;;;;;;;;;;;;;29.90;43.94;101006.55;102610;1294;63420;-81
2023/07/16 08:11:36;;;;;;;;;;;;;;;29.90;43.92;101004.57;102748;1293;64888;-81
2023/07/16 08:14:02;;;;;;;;;;;;;;;29.90;43.94;101005.40;102731;1291;63359;-81
2023/07/16 08:16:27;;;;;;;;;;;;;;;29.90;43.86;101010.52;102724;1291;62212;-81
2023/07/16 08:18:52;;;;;;;;;;;;;;;29.91;43.94;101009.36;102742;1291;62214;-81
2023/07/16 08:21:19;;;;;;;;;;;;;;;29.91;43.82;101006.66;102744;1292;62298;-81
2023/07/16 08:23:51;;;;;;;;;;;;;;;29.91;43.77;101004.46;102708;1291;64960;-81
2023/07/16 08:26:16;;;;;;;;;;;;;;;29.91;43.85;101005.00;102741;1296;66369;-81
2023/07/16 08:28:42;;;;;;;;;;;;;;;29.91;43.86;101006.09;102750;1291;62203;-81
2023/07/16 08:31:07;;;;;;;;;;;;;;;29.91;43.89;101002.30;102773;1291;63489;-81
2023/07/16 08:33:33;;;;;;;;;;;;;;;29.91;43.83;101004.05;102684;1291;62144;-81
2023/07/16 08:35:58;;;;;;;;;;;;;;;29.92;43.80;101003.64;102770;1295;62299;-81
2023/07/16 08:38:24;;;;;;;;;;;;;;;29.91;43.92;101005.65;102721;1291;63335;-81
2023/07/16 08:40:50;;;;;;;;;;;;;;;29.92;43.75;101006.17;102716;1295;63409;-81
2023/07/16 08:43:16;;;;;;;;;;;;;;;29.92;43.78;101001.77;102732;1291;62322;-81
2023/07/16 08:45:44;;;;;;;;;;;;;;;29.92;43.86;101002.52;102761;1291;62016;-81
2023/07/16 08:48:10;;;;;;;;;;;;;;;29.92;43.96;101005.24;102755;1291;62092;-81
2023/07/16 08:50:36;;;;;;;;;;;;;;;29.93;43.86;101003.71;102683;1291;62153;-81
2023/07/16 08:53:05;;;;;;;;;;;;;;;29.92;43.86;101001.23;102751;1297;62617;-81
2023/07/16 08:55:31;;;;;;;;;;;;;;;29.92;43.75;100999.19;102750;1294;65187;-81
2023/07/16 08:57:57;;;;;;;;;;;;;;;29.93;43.77;100996.44;102717;1291;62199;-81
2023/07/16 09:00:25;;;;;;;;;;;;;;;29.93;43.93;100997.30;102733;1291;63873;-81
2023/07/16 09:02:51;;;;;;;;;;;;;;;29.93;43.82;100994.23;102765;1296;62564;-81
2023/07/16 09:05:18;;;;;;;;;;;;;;;29.93;43.96;100991.14;102687;1292;62244;-81
2023/07/16 09:07:44;;;;;;;;;;;;;;;29.94;43.91;100989.64;102744;1297;62140;-81
2023/07/16 09:10:11;;;;;;;;;;;;;;;29.94;43.85;100992.02;102747;1291;62268;-81
2023/07/16 09:12:41;;;;;;;;;;;;;;;29.94;43.90;100988.55;102710;1297;62128;-81
2023/07/16 09:15:06;;;;;;;;;;;;;;;29.94;43.82;100992.73;102713;1297;64026;-81
2023/07/16 09:17:34;;;;;;;;;;;;;;;29.94;43.81;100993.29;102679;1291;62549;-81
2023/07/16 09:20:02;;;;;;;;;;;;;;;29.95;43.95;100999.55;102719;1292;62523;-81
2023/07/16 09:22:27;;;;;;;;;;;;;;;29.95;43.85;100993.21;102771;1291;62204;-81
2023/07/16 09:24:53;;;;;;;;;;;;;;;29.95;43.92;100991.58;102678;1291;62210;-81
2023/07/16 09:27:18;;;;;;;;;;;;;;;29.95;43.81;100990.12;102669;1291;63440;-81
2023/07/16 09:29:44;;;;;;;;;;;;;;;29.95;43.81;100989.58;102793;1292;63504;-81
2023/07/16 09:32:09;;;;;;;;;;;;;;;29.94;43.81;100989.05;102773;1291;62246;-81
2023/07/16 09:34:35;;;;;;;;;;;;;;;29.95;43.81;100986.68;102703;1291;62214;-81
2023/07/16 09:37:00;;;;;;;;;;;;;;;29.95;43.78;100983.59;102716;1291;63463;-81
2023/07/16 09:39:26;;;;;;;;;;;;;;;29.95;43.81;100985.22;102814;1291;62546;-82
2023/07/16 09:41:52;;;;;;;;;;;;;;;29.95;43.79;100985.77;102681;1291;63335;-81
2023/07/16 09:44:17;;;;;;;;;;;;;;;29.95;43.84;100981.24;102777;1297;63503;-81
2023/07/16 09:46:43;;;;;;;;;;;;;;;29.95;43.84;100983.05;102736;1293;62220;-81
2023/07/16 09:49:08;;;;;;;;;;;;;;;29.95;43.95;100975.59;102852;1291;63093;-81
2023/07/16 09:51:35;;;;;;;;;;;;;;;29.95;43.89;100976.27;102982;1292;62300;-81
2023/07/16 09:54:01;;;;;;;;;;;;;;;29.95;43.97;100976.14;102880;1293;62193;-81
2023/07/16 09:56:29;;;;;;;;;;;;;;;29.95;44.01;100970.66;102956;1291;62906;-82
2023/07/16 09:58:55;;;;;;;;;;;;;;;29.96;43.83;100969.91;103146;1291;63383;-82
2023/07/16 10:01:20;;;;;;;;;;;;;;;29.95;43.91;100973.17;102904;1291;62196;-81
2023/07/16 10:03:52;;;;;;;;;;;;;;;29.96;43.82;100969.13;102865;1291;62198;-81
2023/07/16 10:06:17;;;;;;;;;;;;;;;29.96;43.88;100966.04;102583;1292;62265;-81
2023/07/16 10:08:48;;;;;;;;;;;;;;;29.96;43.92;100965.67;103152;1291;62287;-81
2023/07/16 10:11:17;;;;;;;;;;;;;;;29.96;43.99;100966.58;102768;1291;67458;-81
2023/07/16 10:13:42;;;;;;;;;;;;;;;29.97;43.92;100965.06;102793;1291;62197;-81
2023/07/16 10:16:11;;;;;;;;;;;;;;;29.97;43.80;100959.20;102750;1291;62522;-81
2023/07/16 10:18:37;;;;;;;;;;;;;;;29.97;43.88;100954.34;102854;1293;64576;-81
2023/07/16 10:21:05;;;;;;;;;;;;;;;29.97;43.83;100950.38;102787;1291;66470;-81
2023/07/16 10:23:43;;;;;;;;;;;;;;;29.97;43.84;100952.14;102790;1291;62264;-81
2023/07/16 10:26:13;;;;;;;;;;;;;;;29.97;43.99;100948.71;102694;1291;62084;-81
2023/07/16 10:28:39;;;;;;;;;;;;;;;29.96;43.86;100948.75;102734;1291;63812;-81
2023/07/16 10:31:07;;;;;;;;;;;;;;;29.96;43.92;100942.77;102699;1297;62264;-81
2023/07/16 10:33:33;;;;;;;;;;;;;;;29.96;43.84;100943.14;102683;1297;62165;-81
2023/07/16 10:35:59;;;;;;;;;;;;;;;29.96;43.94;100944.10;102703;1293;62877;-81
2023/07/16 10:38:25;;;;;;;;;;;;;;;29.96;43.90;100944.60;102746;1291;63454;-81
2023/07/16 10:40:51;;;;;;;;;;;;;;;29.96;43.80;100938.31;102697;1291;63529;-81
2023/07/16 10:43:16;;;;;;;;;;;;;;;29.96;43.93;100941.03;102718;1291;62278;-81
2023/07/16 10:45:42;;;;;;;;;;;;;;;29.96;43.78;100939.56;102718;1292;62299;-81
2023/07/16 10:48:07;;;;;;;;;;;;;;;29.95;43.95;100939.85;102737;1291;62191;-81
2023/07/16 10:50:36;;;;;;;;;;;;;;;29.95;43.91;100932.59;102801;1291;63074;-81
2023/07/16 10:53:01;;;;;;;;;;;;;;;29.95;43.86;100933.67;102698;1291;67830;-81
2023/07/16 10:55:27;;;;;;;;;;;;;;;29.95;43.80;100932.39;102750;1291;63483;-81
2023/07/16 10:57:53;;;;;;;;;;;;;;;29.95;43.79;100927.29;102726;1295;62299;-81
2023/07/16 11:00:19;;;;;;;;;;;;;;;29.95;43.88;100925.48;102664;1291;62269;-81
2023/07/16 11:02:46;;;;;;;;;;;;;;;29.95;43.80;100922.80;102696;1291;62203;-81
2023/07/16 11:05:11;;;;;;;;;;;;;;;29.95;43.86;100924.42;102741;1291;62357;-81
2023/07/16 11:07:37;;;;;;;;;;;;;;;29.95;43.89;100922.92;102724;1297;62195;-81
2023/07/16 11:10:02;;;;;;;;;;;;;;;29.95;43.89;100919.88;102692;1291;62104;-81
2023/07/16 11:12:28;;;;;;;;;;;;;;;29.95;43.80;100913.16;102723;1296;62263;-81
2023/07/16 11:14:54;;;;;;;;;;;;;;;29.95;43.79;100909.02;102676;1291;62269;-81
2023/07/16 11:17:22;;;;;;;;;;;;;;;29.95;43.86;100904.13;102715;1292;63320;-81
2023/07/16 11:19:48;;;;;;;;;;;;;;;29.95;43.82;100905.39;102798;1291;62195;-81
2023/07/16 11:22:14;;;;;;;;;;;;;;;29.95;43.86;100907.17;102707;1291;63490;-81
2023/07/16 11:24:40;;;;;;;;;;;;;;;29.95;43.91;100904.59;102703;1291;63466;-81
2023/07/16 11:27:06;;;;;;;;;;;;;;;29.95;43.85;100900.23;102741;1297;62430;-81
2023/07/16 11:29:35;;;;;;;;;;;;;;;29.95;43.81;100896.43;102693;1291;63389;-81
2023/07/16 11:32:01;;;;;;;;;;;;;;;29.96;43.95;100892.80;102637;1297;63830;-81
2023/07/16 11:34:26;;;;;;;;;;;;;;;29.96;43.79;100889.25;102804;1291;62283;-81
2023/07/16 11:36:52;;;;;;;;;;;;;;;29.96;43.97;100883.81;102768;1291;62836;-81
2023/07/16 11:39:18;;;;;;;;;;;;;;;29.96;43.91;100882.96;102751;1292;62256;-81
2023/07/16 11:41:53;;;;;;;;;;;;;;;29.96;43.85;100882.55;102773;1291;62242;-81
2023/07/16 11:44:19;;;;;;;;;;;;;;;29.97;43.87;100884.51;102977;1297;64839;-81
2023/07/16 11:46:46;;;;;;;;;;;;;;;29.97;43.82;100882.46;102963;1291;62226;-81
2023/07/16 11:49:11;;;;;;;;;;;;;;;29.97;43.85;100883.55;102753;1297;63458;-81
2023/07/16 11:51:37;;;;;;;;;;;;;;;29.98;43.83;100881.66;103202;1291;62142;-81
2023/07/16 11:54:02;;;;;;;;;;;;;;;29.98;43.91;100882.35;102723;1294;62848;-81
2023/07/16 11:56:27;;;;;;;;;;;;;;;29.98;43.89;100878.58;102732;1291;63404;-81
2023/07/16 11:58:53;;;;;;;;;;;;;;;29.98;43.77;100878.52;102779;1294;62238;-81
2023/07/16 12:01:18;;;;;;;;;;;;;;;29.98;43.90;100879.42;102976;1294;62245;-81
2023/07/16 12:03:44;;;;;;;;;;;;;;;29.99;43.94;100882.83;102991;1291;62290;-82
2023/07/16 12:06:09;;;;;;;;;;;;;;;29.99;43.76;100881.88;102960;1294;62254;-81
2023/07/16 12:08:35;;;;;;;;;;;;;;;29.99;43.78;100878.77;102942;1292;62124;-81
2023/07/16 12:11:01;;;;;;;;;;;;;;;29.99;43.87;100875.86;102937;1295;63322;-81
2023/07/16 12:13:26;;;;;;;;;;;;;;;29.99;43.95;100874.02;102935;1291;63513;-81
2023/07/16 12:15:52;;;;;;;;;;;;;;;30.00;43.77;100875.08;102846;1297;62241;-81
2023/07/16 12:18:17;;;;;;;;;;;;;;;30.00;43.82;100868.36;102683;1291;62213;-81